sensor_id;sensor_type;location;lat;lon;timestamp;P1;durP1;ratioP1;P2;durP2;ratioP2
56401;SDS011;42299;35.160;26.100;2023-04-03T00:01:13;9.88;;;2.35;;
56401;SDS011;42299;35.160;26.100;2023-04-03T00:02:36;13.88;;;2.08;;
56401;SDS011;42299;35.160;26.100;2023-04-03T00:03:58;10.63;;;2.17;;
56401;SDS011;42299;35.160;26.100;2023-04-03T00:05:20;9.48;;;1.92;;
56401;SDS011;42299;35.160;26.100;2023-04-03T00:06:41;9.43;;;2.00;;
56401;SDS011;42299;35.160;26.100;2023-04-03T00:08:04;7.70;;;2.05;;
56401;SDS011;42299;35.160;26.100;2023-04-03T00:09:28;7.38;;;2.15;;
56401;SDS011;42299;35.160;26.100;2023-04-03T00:10:51;9.73;;;2.40;;
56401;SDS011;42299;35.160;26.100;2023-04-03T00:12:13;9.90;;;2.35;;
56401;SDS011;42299;35.160;26.100;2023-04-03T00:13:36;9.10;;;2.00;;
56401;SDS011;42299;35.160;26.100;2023-04-03T00:14:59;7.13;;;1.70;;
56401;SDS011;42299;35.160;26.100;2023-04-03T00:16:21;10.02;;;2.00;;
56401;SDS011;42299;35.160;26.100;2023-04-03T00:17:44;8.77;;;1.65;;
56401;SDS011;42299;35.160;26.100;2023-04-03T00:19:06;6.20;;;1.63;;
56401;SDS011;42299;35.160;26.100;2023-04-03T00:20:28;6.85;;;1.63;;
56401;SDS011;42299;35.160;26.100;2023-04-03T00:21:49;10.15;;;2.63;;
56401;SDS011;42299;35.160;26.100;2023-04-03T00:23:13;8.80;;;2.08;;
56401;SDS011;42299;35.160;26.100;2023-04-03T00:24:36;7.30;;;1.60;;
56401;SDS011;42299;35.160;26.100;2023-04-03T00:25:58;8.73;;;2.30;;
56401;SDS011;42299;35.160;26.100;2023-04-03T00:27:21;9.50;;;1.75;;
56401;SDS011;42299;35.160;26.100;2023-04-03T00:28:42;8.10;;;1.85;;
56401;SDS011;42299;35.160;26.100;2023-04-03T00:30:06;5.50;;;1.40;;
56401;SDS011;42299;35.160;26.100;2023-04-03T00:31:30;8.02;;;1.60;;
56401;SDS011;42299;35.160;26.100;2023-04-03T00:32:52;10.18;;;1.55;;
56401;SDS011;42299;35.160;26.100;2023-04-03T00:34:13;7.15;;;1.45;;
56401;SDS011;42299;35.160;26.100;2023-04-03T00:35:36;6.93;;;1.65;;
56401;SDS011;42299;35.160;26.100;2023-04-03T00:36:57;7.05;;;1.02;;
56401;SDS011;42299;35.160;26.100;2023-04-03T00:38:19;6.30;;;1.45;;
56401;SDS011;42299;35.160;26.100;2023-04-03T00:39:42;8.80;;;1.85;;
56401;SDS011;42299;35.160;26.100;2023-04-03T00:41:05;6.35;;;1.42;;
56401;SDS011;42299;35.160;26.100;2023-04-03T00:42:28;10.30;;;1.40;;
56401;SDS011;42299;35.160;26.100;2023-04-03T00:43:51;8.25;;;1.75;;
56401;SDS011;42299;35.160;26.100;2023-04-03T00:45:25;5.88;;;1.75;;
56401;SDS011;42299;35.160;26.100;2023-04-03T00:46:49;9.10;;;1.45;;
56401;SDS011;42299;35.160;26.100;2023-04-03T00:48:13;6.07;;;1.25;;
56401;SDS011;42299;35.160;26.100;2023-04-03T00:49:39;7.75;;;1.42;;
56401;SDS011;42299;35.160;26.100;2023-04-03T00:51:02;6.10;;;1.50;;
56401;SDS011;42299;35.160;26.100;2023-04-03T00:52:28;9.85;;;2.28;;
56401;SDS011;42299;35.160;26.100;2023-04-03T00:53:52;8.27;;;1.92;;
56401;SDS011;42299;35.160;26.100;2023-04-03T00:55:20;6.07;;;1.30;;
56401;SDS011;42299;35.160;26.100;2023-04-03T00:58:06;8.05;;;1.30;;
56401;SDS011;42299;35.160;26.100;2023-04-03T00:59:30;9.95;;;2.05;;
56401;SDS011;42299;35.160;26.100;2023-04-03T01:00:57;7.60;;;1.33;;
56401;SDS011;42299;35.160;26.100;2023-04-03T01:02:19;7.15;;;1.27;;
56401;SDS011;42299;35.160;26.100;2023-04-03T01:03:42;7.97;;;1.30;;
56401;SDS011;42299;35.160;26.100;2023-04-03T01:05:05;7.85;;;1.50;;
56401;SDS011;42299;35.160;26.100;2023-04-03T01:06:28;9.77;;;1.85;;
56401;SDS011;42299;35.160;26.100;2023-04-03T01:07:58;7.68;;;1.67;;
56401;SDS011;42299;35.160;26.100;2023-04-03T01:09:22;8.18;;;1.70;;
56401;SDS011;42299;35.160;26.100;2023-04-03T01:10:44;11.73;;;1.85;;
56401;SDS011;42299;35.160;26.100;2023-04-03T01:12:15;8.75;;;1.63;;
56401;SDS011;42299;35.160;26.100;2023-04-03T01:13:41;7.68;;;1.33;;
56401;SDS011;42299;35.160;26.100;2023-04-03T01:15:04;7.60;;;1.50;;
56401;SDS011;42299;35.160;26.100;2023-04-03T01:16:28;8.93;;;1.95;;
56401;SDS011;42299;35.160;26.100;2023-04-03T01:17:53;6.63;;;1.20;;
56401;SDS011;42299;35.160;26.100;2023-04-03T01:19:16;7.20;;;2.00;;
56401;SDS011;42299;35.160;26.100;2023-04-03T01:22:31;5.47;;;1.00;;
56401;SDS011;42299;35.160;26.100;2023-04-03T01:24:11;7.93;;;1.45;;
56401;SDS011;42299;35.160;26.100;2023-04-03T01:25:45;9.85;;;1.50;;
56401;SDS011;42299;35.160;26.100;2023-04-03T01:27:09;10.15;;;1.95;;
56401;SDS011;42299;35.160;26.100;2023-04-03T01:28:34;8.27;;;1.80;;
56401;SDS011;42299;35.160;26.100;2023-04-03T01:29:56;8.20;;;1.60;;
56401;SDS011;42299;35.160;26.100;2023-04-03T01:31:20;9.68;;;2.22;;
56401;SDS011;42299;35.160;26.100;2023-04-03T01:32:48;9.05;;;1.65;;
56401;SDS011;42299;35.160;26.100;2023-04-03T01:34:11;9.27;;;1.70;;
56401;SDS011;42299;35.160;26.100;2023-04-03T01:35:33;8.07;;;1.95;;
56401;SDS011;42299;35.160;26.100;2023-04-03T01:36:55;7.95;;;2.00;;
56401;SDS011;42299;35.160;26.100;2023-04-03T01:38:18;6.65;;;1.90;;
56401;SDS011;42299;35.160;26.100;2023-04-03T01:39:39;8.80;;;1.55;;
56401;SDS011;42299;35.160;26.100;2023-04-03T01:41:01;9.25;;;1.73;;
56401;SDS011;42299;35.160;26.100;2023-04-03T01:42:23;12.68;;;2.03;;
56401;SDS011;42299;35.160;26.100;2023-04-03T01:43:46;8.25;;;1.98;;
56401;SDS011;42299;35.160;26.100;2023-04-03T01:45:07;8.43;;;1.77;;
56401;SDS011;42299;35.160;26.100;2023-04-03T01:46:31;8.63;;;1.52;;
56401;SDS011;42299;35.160;26.100;2023-04-03T01:47:54;7.10;;;1.60;;
56401;SDS011;42299;35.160;26.100;2023-04-03T01:49:18;8.57;;;1.60;;
56401;SDS011;42299;35.160;26.100;2023-04-03T01:50:41;10.05;;;2.15;;
56401;SDS011;42299;35.160;26.100;2023-04-03T01:52:02;13.10;;;1.90;;
56401;SDS011;42299;35.160;26.100;2023-04-03T01:53:25;8.07;;;1.40;;
56401;SDS011;42299;35.160;26.100;2023-04-03T01:54:46;11.45;;;2.15;;
56401;SDS011;42299;35.160;26.100;2023-04-03T01:56:09;12.23;;;1.95;;
56401;SDS011;42299;35.160;26.100;2023-04-03T01:57:31;13.43;;;1.77;;
56401;SDS011;42299;35.160;26.100;2023-04-03T01:58:54;8.18;;;1.58;;
56401;SDS011;42299;35.160;26.100;2023-04-03T02:00:15;7.00;;;1.95;;
56401;SDS011;42299;35.160;26.100;2023-04-03T02:01:38;11.30;;;2.67;;
56401;SDS011;42299;35.160;26.100;2023-04-03T02:03:03;13.05;;;2.22;;
56401;SDS011;42299;35.160;26.100;2023-04-03T02:04:24;12.25;;;1.95;;
56401;SDS011;42299;35.160;26.100;2023-04-03T02:05:47;13.88;;;1.92;;
56401;SDS011;42299;35.160;26.100;2023-04-03T02:07:10;8.18;;;2.30;;
56401;SDS011;42299;35.160;26.100;2023-04-03T02:08:33;12.25;;;1.80;;
56401;SDS011;42299;35.160;26.100;2023-04-03T02:09:55;11.65;;;2.22;;
56401;SDS011;42299;35.160;26.100;2023-04-03T02:11:18;8.48;;;1.80;;
56401;SDS011;42299;35.160;26.100;2023-04-03T02:12:41;7.18;;;1.92;;
56401;SDS011;42299;35.160;26.100;2023-04-03T02:14:03;10.45;;;2.58;;
56401;SDS011;42299;35.160;26.100;2023-04-03T02:15:26;8.85;;;1.85;;
56401;SDS011;42299;35.160;26.100;2023-04-03T02:16:47;9.63;;;1.73;;
56401;SDS011;42299;35.160;26.100;2023-04-03T02:18:11;11.13;;;2.25;;
56401;SDS011;42299;35.160;26.100;2023-04-03T02:19:33;11.88;;;2.28;;
56401;SDS011;42299;35.160;26.100;2023-04-03T02:20:57;8.63;;;1.85;;
56401;SDS011;42299;35.160;26.100;2023-04-03T02:22:18;10.25;;;1.88;;
56401;SDS011;42299;35.160;26.100;2023-04-03T02:23:41;9.40;;;1.88;;
56401;SDS011;42299;35.160;26.100;2023-04-03T02:25:03;12.55;;;2.22;;
56401;SDS011;42299;35.160;26.100;2023-04-03T02:26:25;15.48;;;2.45;;
56401;SDS011;42299;35.160;26.100;2023-04-03T02:27:48;10.20;;;1.83;;
56401;SDS011;42299;35.160;26.100;2023-04-03T02:29:09;9.15;;;2.28;;
56401;SDS011;42299;35.160;26.100;2023-04-03T02:30:31;13.85;;;2.75;;
56401;SDS011;42299;35.160;26.100;2023-04-03T02:31:54;12.27;;;1.75;;
56401;SDS011;42299;35.160;26.100;2023-04-03T02:33:18;12.10;;;2.30;;
56401;SDS011;42299;35.160;26.100;2023-04-03T02:34:40;11.23;;;1.98;;
56401;SDS011;42299;35.160;26.100;2023-04-03T02:36:06;18.20;;;2.50;;
56401;SDS011;42299;35.160;26.100;2023-04-03T02:37:29;14.05;;;2.03;;
56401;SDS011;42299;35.160;26.100;2023-04-03T02:38:52;10.43;;;1.92;;
56401;SDS011;42299;35.160;26.100;2023-04-03T02:40:13;10.02;;;2.70;;
56401;SDS011;42299;35.160;26.100;2023-04-03T02:41:36;11.15;;;2.72;;
56401;SDS011;42299;35.160;26.100;2023-04-03T02:43:04;11.25;;;2.40;;
56401;SDS011;42299;35.160;26.100;2023-04-03T02:44:27;11.48;;;2.55;;
56401;SDS011;42299;35.160;26.100;2023-04-03T02:45:49;11.93;;;2.22;;
56401;SDS011;42299;35.160;26.100;2023-04-03T02:47:11;10.73;;;2.75;;
56401;SDS011;42299;35.160;26.100;2023-04-03T02:48:34;14.38;;;2.65;;
56401;SDS011;42299;35.160;26.100;2023-04-03T02:49:57;8.38;;;2.28;;
56401;SDS011;42299;35.160;26.100;2023-04-03T02:51:18;13.05;;;2.80;;
56401;SDS011;42299;35.160;26.100;2023-04-03T02:52:41;11.68;;;2.38;;
56401;SDS011;42299;35.160;26.100;2023-04-03T02:54:02;12.55;;;2.80;;
56401;SDS011;42299;35.160;26.100;2023-04-03T02:55:28;9.60;;;2.42;;
56401;SDS011;42299;35.160;26.100;2023-04-03T02:56:50;14.93;;;2.58;;
56401;SDS011;42299;35.160;26.100;2023-04-03T02:58:12;13.98;;;3.15;;
56401;SDS011;42299;35.160;26.100;2023-04-03T02:59:35;14.55;;;3.53;;
56401;SDS011;42299;35.160;26.100;2023-04-03T03:00:57;13.88;;;2.47;;
56401;SDS011;42299;35.160;26.100;2023-04-03T03:02:19;13.25;;;2.60;;
56401;SDS011;42299;35.160;26.100;2023-04-03T03:03:43;18.80;;;3.33;;
56401;SDS011;42299;35.160;26.100;2023-04-03T03:05:05;14.50;;;2.47;;
56401;SDS011;42299;35.160;26.100;2023-04-03T03:06:27;11.88;;;2.60;;
56401;SDS011;42299;35.160;26.100;2023-04-03T03:07:50;12.65;;;2.83;;
56401;SDS011;42299;35.160;26.100;2023-04-03T03:09:12;8.43;;;1.75;;
56401;SDS011;42299;35.160;26.100;2023-04-03T03:10:36;15.43;;;2.38;;
56401;SDS011;42299;35.160;26.100;2023-04-03T03:11:59;18.38;;;3.13;;
56401;SDS011;42299;35.160;26.100;2023-04-03T03:13:20;12.32;;;2.80;;
56401;SDS011;42299;35.160;26.100;2023-04-03T03:14:42;12.88;;;2.55;;
56401;SDS011;42299;35.160;26.100;2023-04-03T03:16:04;13.13;;;2.65;;
56401;SDS011;42299;35.160;26.100;2023-04-03T03:17:27;12.82;;;2.70;;
56401;SDS011;42299;35.160;26.100;2023-04-03T03:18:51;7.45;;;2.03;;
56401;SDS011;42299;35.160;26.100;2023-04-03T03:20:13;11.68;;;2.30;;
56401;SDS011;42299;35.160;26.100;2023-04-03T03:21:35;12.73;;;2.75;;
56401;SDS011;42299;35.160;26.100;2023-04-03T03:22:57;8.93;;;1.67;;
56401;SDS011;42299;35.160;26.100;2023-04-03T03:24:20;13.55;;;2.33;;
56401;SDS011;42299;35.160;26.100;2023-04-03T03:25:43;11.68;;;2.05;;
56401;SDS011;42299;35.160;26.100;2023-04-03T03:27:05;16.77;;;3.30;;
56401;SDS011;42299;35.160;26.100;2023-04-03T03:28:26;11.43;;;2.45;;
56401;SDS011;42299;35.160;26.100;2023-04-03T03:29:49;9.95;;;1.73;;
56401;SDS011;42299;35.160;26.100;2023-04-03T03:31:11;12.73;;;2.75;;
56401;SDS011;42299;35.160;26.100;2023-04-03T03:32:35;12.43;;;2.90;;
56401;SDS011;42299;35.160;26.100;2023-04-03T03:34:00;14.38;;;2.42;;
56401;SDS011;42299;35.160;26.100;2023-04-03T03:35:22;13.55;;;2.40;;
56401;SDS011;42299;35.160;26.100;2023-04-03T03:36:43;13.48;;;2.30;;
56401;SDS011;42299;35.160;26.100;2023-04-03T03:38:05;11.07;;;2.17;;
56401;SDS011;42299;35.160;26.100;2023-04-03T03:39:27;11.43;;;2.65;;
56401;SDS011;42299;35.160;26.100;2023-04-03T03:40:51;10.70;;;2.38;;
56401;SDS011;42299;35.160;26.100;2023-04-03T03:42:14;14.10;;;2.92;;
56401;SDS011;42299;35.160;26.100;2023-04-03T03:43:37;10.18;;;2.42;;
56401;SDS011;42299;35.160;26.100;2023-04-03T03:45:01;9.68;;;2.42;;
56401;SDS011;42299;35.160;26.100;2023-04-03T03:46:23;13.10;;;1.95;;
56401;SDS011;42299;35.160;26.100;2023-04-03T03:47:47;13.55;;;2.83;;
56401;SDS011;42299;35.160;26.100;2023-04-03T03:49:10;9.18;;;1.88;;
56401;SDS011;42299;35.160;26.100;2023-04-03T03:50:33;12.07;;;2.05;;
56401;SDS011;42299;35.160;26.100;2023-04-03T03:51:55;6.40;;;1.77;;
56401;SDS011;42299;35.160;26.100;2023-04-03T03:53:18;10.77;;;1.83;;
56401;SDS011;42299;35.160;26.100;2023-04-03T03:56:03;11.38;;;1.98;;
56401;SDS011;42299;35.160;26.100;2023-04-03T03:57:25;12.27;;;1.90;;
56401;SDS011;42299;35.160;26.100;2023-04-03T03:58:49;10.80;;;1.60;;
56401;SDS011;42299;35.160;26.100;2023-04-03T04:00:11;12.30;;;2.60;;
56401;SDS011;42299;35.160;26.100;2023-04-03T04:01:41;11.32;;;1.90;;
56401;SDS011;42299;35.160;26.100;2023-04-03T04:03:03;10.52;;;1.83;;
56401;SDS011;42299;35.160;26.100;2023-04-03T04:05:51;18.13;;;1.95;;
56401;SDS011;42299;35.160;26.100;2023-04-03T04:07:14;13.35;;;2.40;;
56401;SDS011;42299;35.160;26.100;2023-04-03T04:08:36;10.85;;;2.03;;
56401;SDS011;42299;35.160;26.100;2023-04-03T04:10:00;13.98;;;3.15;;
56401;SDS011;42299;35.160;26.100;2023-04-03T04:11:22;12.40;;;2.45;;
56401;SDS011;42299;35.160;26.100;2023-04-03T04:12:47;8.55;;;2.47;;
56401;SDS011;42299;35.160;26.100;2023-04-03T04:14:14;7.22;;;1.42;;
56401;SDS011;42299;35.160;26.100;2023-04-03T04:15:37;10.02;;;2.67;;
56401;SDS011;42299;35.160;26.100;2023-04-03T04:16:58;16.30;;;3.10;;
56401;SDS011;42299;35.160;26.100;2023-04-03T04:18:22;9.98;;;2.47;;
56401;SDS011;42299;35.160;26.100;2023-04-03T04:19:45;10.48;;;1.85;;
56401;SDS011;42299;35.160;26.100;2023-04-03T04:21:08;10.73;;;2.05;;
56401;SDS011;42299;35.160;26.100;2023-04-03T04:22:32;10.85;;;2.15;;
56401;SDS011;42299;35.160;26.100;2023-04-03T04:23:54;8.48;;;1.80;;
56401;SDS011;42299;35.160;26.100;2023-04-03T04:25:18;11.82;;;1.88;;
56401;SDS011;42299;35.160;26.100;2023-04-03T04:26:41;12.18;;;2.33;;
56401;SDS011;42299;35.160;26.100;2023-04-03T04:28:05;12.13;;;2.80;;
56401;SDS011;42299;35.160;26.100;2023-04-03T04:29:27;13.93;;;2.08;;
56401;SDS011;42299;35.160;26.100;2023-04-03T04:30:50;10.60;;;2.13;;
56401;SDS011;42299;35.160;26.100;2023-04-03T04:32:13;13.77;;;2.20;;
56401;SDS011;42299;35.160;26.100;2023-04-03T04:33:36;10.07;;;1.77;;
56401;SDS011;42299;35.160;26.100;2023-04-03T04:35:02;9.80;;;1.95;;
56401;SDS011;42299;35.160;26.100;2023-04-03T04:36:26;9.45;;;1.73;;
56401;SDS011;42299;35.160;26.100;2023-04-03T04:37:48;8.48;;;1.95;;
56401;SDS011;42299;35.160;26.100;2023-04-03T04:39:11;14.18;;;2.40;;
56401;SDS011;42299;35.160;26.100;2023-04-03T04:40:34;15.07;;;2.83;;
56401;SDS011;42299;35.160;26.100;2023-04-03T04:41:58;11.98;;;2.50;;
56401;SDS011;42299;35.160;26.100;2023-04-03T04:43:23;12.18;;;2.40;;
56401;SDS011;42299;35.160;26.100;2023-04-03T04:44:48;13.35;;;2.25;;
56401;SDS011;42299;35.160;26.100;2023-04-03T04:46:10;7.28;;;1.83;;
56401;SDS011;42299;35.160;26.100;2023-04-03T04:47:37;9.88;;;2.33;;
56401;SDS011;42299;35.160;26.100;2023-04-03T04:49:00;14.68;;;2.90;;
56401;SDS011;42299;35.160;26.100;2023-04-03T04:50:26;11.23;;;2.28;;
56401;SDS011;42299;35.160;26.100;2023-04-03T04:51:48;13.85;;;2.45;;
56401;SDS011;42299;35.160;26.100;2023-04-03T04:53:12;10.45;;;2.55;;
56401;SDS011;42299;35.160;26.100;2023-04-03T04:54:36;13.25;;;2.70;;
56401;SDS011;42299;35.160;26.100;2023-04-03T04:55:59;10.45;;;2.67;;
56401;SDS011;42299;35.160;26.100;2023-04-03T04:57:20;9.48;;;1.92;;
56401;SDS011;42299;35.160;26.100;2023-04-03T04:58:43;12.23;;;1.63;;
56401;SDS011;42299;35.160;26.100;2023-04-03T05:00:06;9.40;;;2.30;;
56401;SDS011;42299;35.160;26.100;2023-04-03T05:01:30;10.43;;;2.33;;
56401;SDS011;42299;35.160;26.100;2023-04-03T05:03:00;13.73;;;2.38;;
56401;SDS011;42299;35.160;26.100;2023-04-03T05:04:23;11.85;;;2.47;;
56401;SDS011;42299;35.160;26.100;2023-04-03T05:05:52;11.85;;;2.10;;
56401;SDS011;42299;35.160;26.100;2023-04-03T05:07:13;9.93;;;2.17;;
56401;SDS011;42299;35.160;26.100;2023-04-03T05:08:36;7.15;;;1.73;;
56401;SDS011;42299;35.160;26.100;2023-04-03T05:09:59;10.20;;;2.15;;
56401;SDS011;42299;35.160;26.100;2023-04-03T05:11:22;10.93;;;2.58;;
56401;SDS011;42299;35.160;26.100;2023-04-03T05:12:45;13.23;;;2.38;;
56401;SDS011;42299;35.160;26.100;2023-04-03T05:14:08;11.60;;;2.33;;
56401;SDS011;42299;35.160;26.100;2023-04-03T05:15:31;13.52;;;2.53;;
56401;SDS011;42299;35.160;26.100;2023-04-03T05:16:53;12.05;;;2.60;;
56401;SDS011;42299;35.160;26.100;2023-04-03T05:18:17;13.50;;;2.70;;
56401;SDS011;42299;35.160;26.100;2023-04-03T05:19:40;12.98;;;2.72;;
56401;SDS011;42299;35.160;26.100;2023-04-03T05:21:05;12.13;;;2.47;;
56401;SDS011;42299;35.160;26.100;2023-04-03T05:22:28;9.50;;;1.77;;
56401;SDS011;42299;35.160;26.100;2023-04-03T05:23:55;13.65;;;2.85;;
56401;SDS011;42299;35.160;26.100;2023-04-03T05:25:17;12.18;;;2.45;;
56401;SDS011;42299;35.160;26.100;2023-04-03T05:26:40;9.50;;;2.10;;
56401;SDS011;42299;35.160;26.100;2023-04-03T05:28:03;9.80;;;2.05;;
56401;SDS011;42299;35.160;26.100;2023-04-03T05:29:26;17.23;;;2.83;;
56401;SDS011;42299;35.160;26.100;2023-04-03T05:30:52;9.93;;;2.40;;
56401;SDS011;42299;35.160;26.100;2023-04-03T05:32:16;16.40;;;3.15;;
56401;SDS011;42299;35.160;26.100;2023-04-03T05:33:39;13.48;;;3.30;;
56401;SDS011;42299;35.160;26.100;2023-04-03T05:35:05;14.45;;;3.22;;
56401;SDS011;42299;35.160;26.100;2023-04-03T05:36:30;11.13;;;2.55;;
56401;SDS011;42299;35.160;26.100;2023-04-03T05:37:57;12.10;;;2.35;;
56401;SDS011;42299;35.160;26.100;2023-04-03T05:39:20;16.83;;;3.67;;
56401;SDS011;42299;35.160;26.100;2023-04-03T05:40:44;11.52;;;2.30;;
56401;SDS011;42299;35.160;26.100;2023-04-03T05:42:05;10.63;;;2.60;;
56401;SDS011;42299;35.160;26.100;2023-04-03T05:43:28;13.77;;;2.60;;
56401;SDS011;42299;35.160;26.100;2023-04-03T05:44:51;15.45;;;3.13;;
56401;SDS011;42299;35.160;26.100;2023-04-03T05:46:15;12.95;;;2.97;;
56401;SDS011;42299;35.160;26.100;2023-04-03T05:47:39;13.48;;;3.22;;
56401;SDS011;42299;35.160;26.100;2023-04-03T05:49:02;18.00;;;4.00;;
56401;SDS011;42299;35.160;26.100;2023-04-03T05:50:27;16.15;;;3.40;;
56401;SDS011;42299;35.160;26.100;2023-04-03T05:51:52;15.13;;;3.70;;
56401;SDS011;42299;35.160;26.100;2023-04-03T05:53:22;19.40;;;4.70;;
56401;SDS011;42299;35.160;26.100;2023-04-03T05:54:51;19.08;;;3.60;;
56401;SDS011;42299;35.160;26.100;2023-04-03T05:56:19;20.17;;;4.57;;
56401;SDS011;42299;35.160;26.100;2023-04-03T05:57:42;19.10;;;4.55;;
56401;SDS011;42299;35.160;26.100;2023-04-03T05:59:05;15.75;;;3.58;;
56401;SDS011;42299;35.160;26.100;2023-04-03T06:00:28;19.50;;;3.53;;
56401;SDS011;42299;35.160;26.100;2023-04-03T06:01:55;17.33;;;3.40;;
56401;SDS011;42299;35.160;26.100;2023-04-03T06:03:18;18.08;;;4.47;;
56401;SDS011;42299;35.160;26.100;2023-04-03T06:04:41;18.30;;;4.13;;
56401;SDS011;42299;35.160;26.100;2023-04-03T06:06:04;13.57;;;3.28;;
56401;SDS011;42299;35.160;26.100;2023-04-03T06:07:29;15.68;;;3.95;;
56401;SDS011;42299;35.160;26.100;2023-04-03T06:08:52;18.10;;;4.07;;
56401;SDS011;42299;35.160;26.100;2023-04-03T06:10:15;19.05;;;5.05;;
56401;SDS011;42299;35.160;26.100;2023-04-03T06:11:39;19.95;;;4.10;;
56401;SDS011;42299;35.160;26.100;2023-04-03T06:13:02;21.98;;;4.97;;
56401;SDS011;42299;35.160;26.100;2023-04-03T06:14:26;20.02;;;5.25;;
56401;SDS011;42299;35.160;26.100;2023-04-03T06:15:49;21.52;;;5.70;;
56401;SDS011;42299;35.160;26.100;2023-04-03T06:17:11;15.02;;;4.40;;
56401;SDS011;42299;35.160;26.100;2023-04-03T06:18:33;21.83;;;6.03;;
56401;SDS011;42299;35.160;26.100;2023-04-03T06:19:56;16.98;;;4.88;;
56401;SDS011;42299;35.160;26.100;2023-04-03T06:21:19;19.73;;;4.85;;
56401;SDS011;42299;35.160;26.100;2023-04-03T06:22:43;18.15;;;4.78;;
56401;SDS011;42299;35.160;26.100;2023-04-03T06:24:06;15.13;;;4.00;;
56401;SDS011;42299;35.160;26.100;2023-04-03T06:25:29;18.02;;;4.82;;
56401;SDS011;42299;35.160;26.100;2023-04-03T06:26:52;24.65;;;6.63;;
56401;SDS011;42299;35.160;26.100;2023-04-03T06:28:14;16.90;;;3.75;;
56401;SDS011;42299;35.160;26.100;2023-04-03T06:29:37;26.00;;;5.72;;
56401;SDS011;42299;35.160;26.100;2023-04-03T06:30:59;20.55;;;4.25;;
56401;SDS011;42299;35.160;26.100;2023-04-03T06:32:21;20.25;;;4.13;;
56401;SDS011;42299;35.160;26.100;2023-04-03T06:33:44;18.40;;;3.90;;
56401;SDS011;42299;35.160;26.100;2023-04-03T06:35:06;18.08;;;4.03;;
56401;SDS011;42299;35.160;26.100;2023-04-03T06:36:29;19.38;;;4.13;;
56401;SDS011;42299;35.160;26.100;2023-04-03T06:37:53;18.90;;;4.20;;
56401;SDS011;42299;35.160;26.100;2023-04-03T06:39:17;19.65;;;5.47;;
56401;SDS011;42299;35.160;26.100;2023-04-03T06:40:42;21.13;;;4.75;;
56401;SDS011;42299;35.160;26.100;2023-04-03T06:42:04;21.58;;;4.68;;
56401;SDS011;42299;35.160;26.100;2023-04-03T06:43:39;15.63;;;3.47;;
56401;SDS011;42299;35.160;26.100;2023-04-03T06:45:01;13.52;;;3.80;;
56401;SDS011;42299;35.160;26.100;2023-04-03T06:46:25;20.85;;;4.85;;
56401;SDS011;42299;35.160;26.100;2023-04-03T06:47:48;20.05;;;4.05;;
56401;SDS011;42299;35.160;26.100;2023-04-03T06:49:11;14.82;;;3.92;;
56401;SDS011;42299;35.160;26.100;2023-04-03T06:50:33;15.55;;;3.88;;
56401;SDS011;42299;35.160;26.100;2023-04-03T06:51:56;18.88;;;5.15;;
56401;SDS011;42299;35.160;26.100;2023-04-03T06:53:20;15.98;;;4.05;;
56401;SDS011;42299;35.160;26.100;2023-04-03T06:54:43;16.35;;;3.60;;
56401;SDS011;42299;35.160;26.100;2023-04-03T06:56:06;19.27;;;3.47;;
56401;SDS011;42299;35.160;26.100;2023-04-03T06:57:30;16.73;;;4.15;;
56401;SDS011;42299;35.160;26.100;2023-04-03T06:58:52;20.33;;;5.05;;
56401;SDS011;42299;35.160;26.100;2023-04-03T07:00:17;18.63;;;3.65;;
56401;SDS011;42299;35.160;26.100;2023-04-03T07:01:41;16.55;;;3.58;;
56401;SDS011;42299;35.160;26.100;2023-04-03T07:03:04;20.20;;;5.03;;
56401;SDS011;42299;35.160;26.100;2023-04-03T07:04:26;18.98;;;3.95;;
56401;SDS011;42299;35.160;26.100;2023-04-03T07:05:49;15.93;;;3.90;;
56401;SDS011;42299;35.160;26.100;2023-04-03T07:07:11;20.88;;;3.78;;
56401;SDS011;42299;35.160;26.100;2023-04-03T07:08:35;10.73;;;2.50;;
56401;SDS011;42299;35.160;26.100;2023-04-03T07:09:57;18.50;;;3.70;;
56401;SDS011;42299;35.160;26.100;2023-04-03T07:11:20;16.00;;;4.03;;
56401;SDS011;42299;35.160;26.100;2023-04-03T07:12:43;12.50;;;3.15;;
56401;SDS011;42299;35.160;26.100;2023-04-03T07:14:05;16.17;;;2.80;;
56401;SDS011;42299;35.160;26.100;2023-04-03T07:15:28;17.45;;;6.18;;
56401;SDS011;42299;35.160;26.100;2023-04-03T07:16:50;24.95;;;8.30;;
56401;SDS011;42299;35.160;26.100;2023-04-03T07:18:12;16.05;;;4.32;;
56401;SDS011;42299;35.160;26.100;2023-04-03T07:19:35;20.33;;;5.40;;
56401;SDS011;42299;35.160;26.100;2023-04-03T07:20:57;19.17;;;3.35;;
56401;SDS011;42299;35.160;26.100;2023-04-03T07:22:18;15.55;;;3.83;;
56401;SDS011;42299;35.160;26.100;2023-04-03T07:23:43;20.85;;;4.22;;
56401;SDS011;42299;35.160;26.100;2023-04-03T07:25:06;20.10;;;5.45;;
56401;SDS011;42299;35.160;26.100;2023-04-03T07:26:28;21.23;;;4.70;;
56401;SDS011;42299;35.160;26.100;2023-04-03T07:27:51;14.13;;;3.67;;
56401;SDS011;42299;35.160;26.100;2023-04-03T07:29:14;16.80;;;3.83;;
56401;SDS011;42299;35.160;26.100;2023-04-03T07:30:41;15.73;;;3.53;;
56401;SDS011;42299;35.160;26.100;2023-04-03T07:32:05;20.85;;;4.40;;
56401;SDS011;42299;35.160;26.100;2023-04-03T07:33:28;16.23;;;3.58;;
56401;SDS011;42299;35.160;26.100;2023-04-03T07:34:51;15.30;;;3.33;;
56401;SDS011;42299;35.160;26.100;2023-04-03T07:36:14;21.08;;;5.07;;
56401;SDS011;42299;35.160;26.100;2023-04-03T07:37:38;19.08;;;3.63;;
56401;SDS011;42299;35.160;26.100;2023-04-03T07:39:02;20.10;;;3.58;;
56401;SDS011;42299;35.160;26.100;2023-04-03T07:40:24;17.40;;;4.15;;
56401;SDS011;42299;35.160;26.100;2023-04-03T07:41:47;22.75;;;3.80;;
56401;SDS011;42299;35.160;26.100;2023-04-03T07:43:09;19.70;;;3.75;;
56401;SDS011;42299;35.160;26.100;2023-04-03T07:44:32;15.32;;;3.25;;
56401;SDS011;42299;35.160;26.100;2023-04-03T07:45:54;15.60;;;3.92;;
56401;SDS011;42299;35.160;26.100;2023-04-03T07:47:16;11.77;;;2.83;;
56401;SDS011;42299;35.160;26.100;2023-04-03T07:48:38;34.80;;;4.40;;
56401;SDS011;42299;35.160;26.100;2023-04-03T07:50:01;14.15;;;3.72;;
56401;SDS011;42299;35.160;26.100;2023-04-03T07:51:23;13.88;;;3.70;;
56401;SDS011;42299;35.160;26.100;2023-04-03T07:52:47;14.07;;;3.35;;
56401;SDS011;42299;35.160;26.100;2023-04-03T07:54:12;12.15;;;3.35;;
56401;SDS011;42299;35.160;26.100;2023-04-03T07:55:35;22.70;;;5.32;;
56401;SDS011;42299;35.160;26.100;2023-04-03T07:57:03;16.13;;;3.72;;
56401;SDS011;42299;35.160;26.100;2023-04-03T07:58:26;16.40;;;3.78;;
56401;SDS011;42299;35.160;26.100;2023-04-03T07:59:49;13.95;;;3.92;;
56401;SDS011;42299;35.160;26.100;2023-04-03T08:01:12;17.30;;;3.50;;
56401;SDS011;42299;35.160;26.100;2023-04-03T08:02:35;21.25;;;4.28;;
56401;SDS011;42299;35.160;26.100;2023-04-03T08:03:57;13.63;;;3.80;;
56401;SDS011;42299;35.160;26.100;2023-04-03T08:05:20;15.05;;;3.00;;
56401;SDS011;42299;35.160;26.100;2023-04-03T08:06:43;14.55;;;3.17;;
56401;SDS011;42299;35.160;26.100;2023-04-03T08:08:06;12.32;;;2.45;;
56401;SDS011;42299;35.160;26.100;2023-04-03T08:09:32;13.20;;;2.50;;
56401;SDS011;42299;35.160;26.100;2023-04-03T08:10:54;12.77;;;2.15;;
56401;SDS011;42299;35.160;26.100;2023-04-03T08:12:16;16.80;;;2.92;;
56401;SDS011;42299;35.160;26.100;2023-04-03T08:13:42;16.55;;;3.03;;
56401;SDS011;42299;35.160;26.100;2023-04-03T08:15:05;11.25;;;2.40;;
56401;SDS011;42299;35.160;26.100;2023-04-03T08:16:29;9.00;;;1.98;;